createdAt,value
2019-05-18T00:02:17.111Z,6.93
2019-05-18T00:04:46.792Z,6.91
2019-05-18T00:07:16.200Z,6.91
2019-05-18T00:09:45.619Z,6.88
2019-05-18T00:12:16.057Z,6.88
2019-05-18T00:14:45.709Z,6.85
2019-05-18T00:17:25.012Z,6.79
2019-05-18T00:19:46.272Z,6.72
2019-05-18T00:22:19.282Z,6.68
2019-05-18T00:24:48.647Z,6.65
2019-05-18T00:27:18.307Z,6.61
2019-05-18T00:29:47.839Z,6.62
2019-05-18T00:32:17.367Z,6.71
2019-05-18T00:34:46.932Z,6.77
2019-05-18T00:37:16.382Z,6.76
2019-05-18T00:39:47.157Z,6.74
2019-05-18T00:42:16.544Z,6.70
2019-05-18T00:44:48.333Z,6.68
2019-05-18T00:47:17.789Z,6.63
2019-05-18T00:49:47.119Z,6.61
2019-05-18T00:52:18.714Z,6.61
2019-05-18T00:54:48.279Z,6.58
2019-05-18T00:57:17.750Z,6.55
2019-05-18T00:59:47.412Z,6.51
2019-05-18T01:02:16.749Z,6.51
2019-05-18T01:04:46.222Z,6.49
2019-05-18T01:07:15.723Z,6.46
2019-05-18T01:09:45.727Z,6.49
2019-05-18T01:12:15.130Z,6.61
2019-05-18T01:14:44.683Z,6.62
2019-05-18T01:17:14.077Z,6.56
2019-05-18T01:19:43.553Z,6.47
2019-05-18T01:22:12.923Z,6.38
2019-05-18T01:24:42.389Z,6.29
2019-05-18T01:27:11.882Z,6.25
2019-05-18T01:29:41.451Z,6.19
2019-05-18T01:32:10.806Z,6.16
2019-05-18T01:34:40.338Z,6.19
2019-05-18T01:37:09.659Z,6.17
2019-05-18T01:39:39.111Z,6.13
2019-05-18T01:42:08.473Z,6.14
2019-05-18T01:44:38.027Z,6.17
2019-05-18T01:47:07.542Z,6.30
2019-05-18T01:49:37.106Z,6.29
2019-05-18T01:52:06.589Z,6.20
2019-05-18T01:54:35.968Z,6.15
2019-05-18T01:57:05.334Z,6.10
2019-05-18T01:59:34.749Z,6.10
2019-05-18T02:02:04.170Z,6.11
2019-05-18T02:04:35.541Z,6.10
2019-05-18T02:07:05.041Z,6.07
2019-05-18T02:09:34.429Z,6.04
2019-05-18T02:12:03.871Z,6.01
2019-05-18T02:14:33.372Z,5.95
2019-05-18T02:17:02.769Z,5.95
2019-05-18T02:19:32.100Z,6.01
2019-05-18T02:22:01.661Z,5.98
2019-05-18T02:24:31.183Z,5.92
2019-05-18T02:27:00.734Z,5.90
2019-05-18T02:29:30.089Z,5.94
2019-05-18T02:31:59.524Z,5.90
2019-05-18T02:34:29.001Z,5.79
2019-05-18T02:36:58.723Z,5.69
2019-05-18T02:39:28.365Z,5.63
2019-05-18T02:41:57.895Z,5.59
2019-05-18T02:44:27.255Z,5.55
2019-05-18T02:46:56.617Z,5.54
2019-05-18T02:49:26.052Z,5.55
2019-05-18T02:51:58.824Z,5.53
2019-05-18T02:54:28.141Z,5.53
2019-05-18T02:56:57.591Z,5.54
2019-05-18T02:59:26.999Z,5.56
2019-05-18T03:01:56.463Z,5.59
2019-05-18T03:04:25.928Z,5.63
2019-05-18T03:06:55.400Z,5.66
2019-05-18T03:09:24.974Z,5.66
2019-05-18T03:11:54.330Z,5.67
2019-05-18T03:14:23.812Z,5.67
2019-05-18T03:16:53.154Z,5.62
2019-05-18T03:19:22.601Z,5.57
2019-05-18T03:21:51.994Z,5.51
2019-05-18T03:24:21.407Z,5.48
2019-05-18T03:26:50.832Z,5.53
2019-05-18T03:29:20.645Z,5.52
2019-05-18T03:31:50.129Z,5.51
2019-05-18T03:34:19.544Z,5.51
2019-05-18T03:36:48.932Z,5.52
2019-05-18T03:39:18.291Z,5.60
2019-05-18T03:41:47.840Z,5.66
2019-05-18T03:44:17.291Z,5.70
2019-05-18T03:46:46.709Z,5.74
2019-05-18T03:49:26.405Z,5.76
2019-05-18T03:51:47.178Z,5.79
2019-05-18T03:54:16.653Z,5.83
2019-05-18T03:56:46.234Z,5.89
2019-05-18T03:59:15.588Z,5.94
2019-05-18T04:01:45.032Z,5.98
2019-05-18T04:04:18.305Z,6.04
2019-05-18T04:06:45.687Z,6.13
2019-05-18T04:09:15.226Z,6.16
2019-05-18T04:11:44.674Z,6.17
2019-05-18T04:14:14.279Z,6.23
2019-05-18T04:16:43.780Z,6.27
2019-05-18T04:19:13.162Z,6.31
2019-05-18T04:21:42.779Z,6.34
2019-05-18T04:24:12.199Z,6.45
2019-05-18T04:26:42.013Z,6.58
2019-05-18T04:29:11.340Z,6.71
2019-05-18T04:31:40.761Z,6.86
2019-05-18T04:34:10.126Z,6.94
2019-05-18T04:36:39.614Z,6.97
2019-05-18T04:39:09.216Z,6.98
2019-05-18T04:41:38.729Z,7.01
2019-05-18T04:44:08.193Z,7.07
2019-05-18T04:46:37.576Z,7.14
2019-05-18T04:49:07.029Z,7.21
2019-05-18T04:51:36.534Z,7.25
2019-05-18T04:54:06.120Z,7.32
2019-05-18T04:56:35.616Z,7.39
2019-05-18T04:59:05.340Z,7.47
2019-05-18T05:01:34.749Z,7.54
2019-05-18T05:04:04.258Z,7.64
2019-05-18T05:06:33.728Z,7.72
2019-05-18T05:09:05.039Z,7.78
2019-05-18T05:11:35.019Z,7.84
2019-05-18T05:14:04.899Z,7.93
2019-05-18T05:16:34.271Z,8.04
2019-05-18T05:19:03.806Z,8.13
2019-05-18T05:21:33.291Z,8.24
2019-05-18T05:24:02.853Z,8.35
2019-05-18T05:26:32.304Z,8.42
2019-05-18T05:29:01.849Z,8.53
2019-05-18T05:31:31.329Z,8.63
2019-05-18T05:34:00.835Z,8.74
2019-05-18T05:36:30.436Z,8.84
2019-05-18T05:38:59.909Z,8.94
2019-05-18T05:41:29.378Z,9.05
2019-05-18T05:43:58.800Z,9.17
2019-05-18T05:46:28.302Z,9.31
2019-05-18T05:48:57.772Z,9.47
2019-05-18T05:51:27.294Z,9.65
2019-05-18T05:53:56.641Z,9.78
2019-05-18T05:56:26.021Z,9.91
2019-05-18T05:58:55.461Z,10.05
2019-05-18T06:01:24.935Z,10.16
2019-05-18T06:03:54.474Z,10.25
2019-05-18T06:06:23.996Z,10.35
2019-05-18T06:08:53.570Z,10.44
2019-05-18T06:11:23.083Z,10.54
2019-05-18T06:13:52.586Z,10.66
2019-05-18T06:16:22.072Z,10.73
2019-05-18T06:18:51.478Z,10.75
2019-05-18T06:21:20.871Z,10.77
2019-05-18T06:23:50.321Z,10.81
2019-05-18T06:26:19.738Z,10.88
2019-05-18T06:28:49.302Z,11.01
2019-05-18T06:31:18.814Z,11.09
2019-05-18T06:33:48.321Z,11.16
2019-05-18T06:36:17.715Z,11.25
2019-05-18T06:38:47.123Z,11.39
2019-05-18T06:41:16.509Z,11.53
2019-05-18T06:43:46.130Z,11.68
2019-05-18T06:46:15.620Z,11.79
2019-05-18T06:48:45.014Z,11.92
2019-05-18T06:51:14.511Z,12.06
2019-05-18T06:53:43.885Z,12.17
2019-05-18T06:56:13.595Z,12.26
2019-05-18T06:58:43.089Z,12.33
2019-05-18T07:01:12.584Z,12.40
2019-05-18T07:03:44.964Z,12.52
2019-05-18T07:06:13.228Z,12.70
2019-05-18T07:08:42.622Z,12.84
2019-05-18T07:11:12.179Z,12.94
2019-05-18T07:13:41.718Z,13.06
2019-05-18T07:16:11.179Z,13.14
2019-05-18T07:18:40.577Z,13.28
2019-05-18T07:21:21.304Z,13.41
2019-05-18T07:23:43.752Z,13.57
2019-05-18T07:26:12.403Z,13.67
2019-05-18T07:28:42.184Z,13.87
2019-05-18T07:31:11.669Z,14.17
2019-05-18T07:33:41.895Z,14.49
2019-05-18T07:36:11.393Z,14.86
2019-05-18T07:38:41.008Z,15.34
2019-05-18T07:41:10.462Z,15.70
2019-05-18T07:43:39.897Z,16.06
2019-05-18T07:46:09.394Z,16.23
2019-05-18T07:48:38.915Z,16.36
2019-05-18T07:51:08.455Z,16.39
2019-05-18T07:53:37.772Z,16.33
2019-05-18T07:56:07.257Z,16.38
2019-05-18T07:58:36.663Z,16.53
2019-05-18T08:01:06.160Z,16.74
2019-05-18T08:03:35.563Z,16.91
2019-05-18T08:06:05.092Z,17.04
2019-05-18T08:08:34.507Z,17.11
2019-05-18T08:11:03.965Z,17.21
2019-05-18T08:13:33.334Z,17.35
2019-05-18T08:16:02.842Z,17.54
2019-05-18T08:18:32.268Z,17.71
2019-05-18T08:21:01.761Z,17.85
2019-05-18T08:23:31.369Z,18.07
2019-05-18T08:26:00.947Z,18.45
2019-05-18T08:28:30.377Z,18.72
2019-05-18T08:30:59.791Z,18.90
2019-05-18T08:33:29.282Z,19.16
2019-05-18T08:35:58.690Z,19.32
2019-05-18T08:38:28.063Z,19.43
2019-05-18T08:40:57.530Z,19.56
2019-05-18T08:43:27.598Z,19.85
2019-05-18T08:45:57.039Z,20.07
2019-05-18T08:48:26.507Z,20.28
2019-05-18T08:50:55.915Z,20.44
2019-05-18T08:53:25.330Z,20.61
2019-05-18T08:55:54.827Z,20.74
2019-05-18T08:58:24.274Z,20.77
2019-05-18T09:00:53.702Z,20.80
2019-05-18T09:03:23.056Z,20.92
2019-05-18T09:05:52.437Z,21.00
2019-05-18T09:08:21.888Z,21.21
2019-05-18T09:10:51.319Z,21.40
2019-05-18T09:13:20.708Z,21.38
2019-05-18T09:15:50.219Z,21.39
2019-05-18T09:18:19.657Z,21.57
2019-05-18T09:20:49.143Z,21.66
2019-05-18T09:23:19.101Z,21.68
2019-05-18T09:25:48.731Z,21.70
2019-05-18T09:28:18.173Z,21.80
2019-05-18T09:30:47.811Z,21.94
2019-05-18T09:33:17.241Z,21.84
2019-05-18T09:35:46.664Z,21.76
2019-05-18T09:38:16.063Z,21.77
2019-05-18T09:40:45.512Z,21.77
2019-05-18T09:43:14.884Z,21.77
2019-05-18T09:45:44.389Z,21.75
2019-05-18T09:48:13.785Z,21.69
2019-05-18T09:50:43.207Z,21.54
2019-05-18T09:53:12.732Z,21.71
2019-05-18T09:55:42.223Z,21.89
2019-05-18T09:58:11.701Z,22.10
2019-05-18T10:00:41.187Z,22.39
2019-05-18T10:03:10.897Z,22.65
2019-05-18T10:05:40.413Z,23.05
2019-05-18T10:08:09.929Z,23.35
2019-05-18T10:10:39.317Z,23.82
2019-05-18T10:13:08.844Z,24.25
2019-05-18T10:15:38.227Z,24.62
2019-05-18T10:18:07.774Z,24.83
2019-05-18T10:20:37.165Z,24.98
2019-05-18T10:23:12.708Z,25.01
2019-05-18T10:25:37.920Z,24.94
2019-05-18T10:28:07.334Z,24.86
2019-05-18T10:30:36.678Z,24.56
2019-05-18T10:33:06.186Z,24.29
2019-05-18T10:35:35.643Z,24.11
2019-05-18T10:38:05.081Z,23.92
2019-05-18T10:40:34.744Z,23.73
2019-05-18T10:43:04.218Z,23.68
2019-05-18T10:45:33.815Z,23.71
2019-05-18T10:48:03.253Z,23.84
2019-05-18T10:50:32.795Z,24.04
2019-05-18T10:53:02.382Z,23.94
2019-05-18T10:55:31.822Z,24.01
2019-05-18T10:58:01.281Z,24.39
2019-05-18T11:00:30.782Z,24.79
2019-05-18T11:03:00.218Z,25.22
2019-05-18T11:05:29.639Z,25.45
2019-05-18T11:07:59.069Z,25.63
2019-05-18T11:10:28.634Z,25.76
2019-05-18T11:12:58.347Z,26.23
2019-05-18T11:15:27.809Z,26.43
2019-05-18T11:17:57.289Z,26.99
2019-05-18T11:20:26.751Z,27.58
2019-05-18T11:22:56.219Z,27.80
2019-05-18T11:25:25.853Z,27.82
2019-05-18T11:27:55.366Z,28.36
2019-05-18T11:30:25.033Z,28.61
2019-05-18T11:32:54.547Z,28.56
2019-05-18T11:35:24.117Z,28.16
2019-05-18T11:37:53.578Z,27.52
2019-05-18T11:40:23.187Z,26.94
2019-05-18T11:42:52.702Z,26.42
2019-05-18T11:45:22.277Z,26.13
2019-05-18T11:47:51.656Z,26.59
2019-05-18T11:50:21.573Z,26.90
2019-05-18T11:52:51.076Z,26.99
2019-05-18T11:55:21.472Z,26.92
2019-05-18T11:57:51.012Z,26.89
2019-05-18T12:00:21.087Z,26.98
2019-05-18T12:02:50.496Z,27.05
2019-05-18T12:05:19.957Z,27.00
2019-05-18T12:07:49.372Z,27.26
2019-05-18T12:10:18.935Z,27.41
2019-05-18T12:12:48.463Z,27.27
2019-05-18T12:15:18.425Z,28.10
2019-05-18T12:17:47.805Z,29.34
2019-05-18T12:20:17.297Z,31.08
2019-05-18T12:22:46.822Z,31.05
2019-05-18T12:25:16.393Z,30.15
2019-05-18T12:27:45.945Z,29.08
2019-05-18T12:30:15.744Z,28.83
2019-05-18T12:32:45.271Z,30.72
2019-05-18T12:35:16.409Z,32.51
2019-05-18T12:37:45.844Z,33.36
2019-05-18T12:40:18.743Z,33.29
2019-05-18T12:42:48.261Z,34.51
2019-05-18T12:45:18.021Z,35.63
2019-05-18T12:47:47.395Z,36.62
2019-05-18T12:50:17.365Z,37.58
2019-05-18T12:52:46.742Z,37.91
2019-05-18T12:55:16.363Z,37.78
2019-05-18T12:57:45.766Z,37.88
2019-05-18T13:00:15.678Z,37.29
2019-05-18T13:02:45.231Z,37.92
2019-05-18T13:05:14.603Z,38.80
2019-05-18T13:07:44.063Z,39.65
2019-05-18T13:10:15.546Z,39.81
2019-05-18T13:12:44.938Z,39.98
2019-05-18T13:15:16.708Z,40.06
2019-05-18T13:17:46.269Z,39.76
2019-05-18T13:20:15.849Z,37.28
2019-05-18T13:22:45.329Z,35.01
2019-05-18T13:25:15.139Z,35.43
2019-05-18T13:27:44.767Z,35.48
2019-05-18T13:30:14.736Z,33.34
2019-05-18T13:32:44.186Z,31.27
2019-05-18T13:35:14.222Z,30.34
2019-05-18T13:37:43.722Z,29.47
2019-05-18T13:40:13.418Z,28.67
2019-05-18T13:42:42.910Z,28.44
2019-05-18T13:45:13.714Z,28.60
2019-05-18T13:47:43.282Z,28.31
2019-05-18T13:50:13.211Z,27.87
2019-05-18T13:52:42.572Z,27.34
2019-05-18T13:55:12.165Z,26.75
2019-05-18T13:57:41.641Z,26.35
2019-05-18T14:00:12.758Z,26.23
2019-05-18T14:02:42.169Z,26.17
2019-05-18T14:05:12.823Z,25.99
2019-05-18T14:07:42.224Z,25.96
2019-05-18T14:10:12.726Z,25.78
2019-05-18T14:12:42.320Z,25.76
2019-05-18T14:15:12.091Z,25.88
2019-05-18T14:17:41.577Z,25.90
2019-05-18T14:20:11.051Z,26.00
2019-05-18T14:22:40.451Z,26.12
2019-05-18T14:25:19.220Z,26.06
2019-05-18T14:27:41.445Z,26.08
2019-05-18T14:30:12.288Z,26.20
2019-05-18T14:32:41.670Z,26.52
2019-05-18T14:35:11.380Z,26.80
2019-05-18T14:37:40.742Z,26.96
2019-05-18T14:40:10.404Z,26.87
2019-05-18T14:42:39.798Z,26.60
2019-05-18T14:45:09.793Z,26.28
2019-05-18T14:47:39.223Z,25.90
2019-05-18T14:50:08.925Z,25.68
2019-05-18T14:52:38.377Z,27.17
2019-05-18T14:55:07.914Z,31.03
2019-05-18T14:57:37.262Z,34.17
2019-05-18T15:00:07.577Z,35.56
2019-05-18T15:02:37.019Z,34.14
2019-05-18T15:05:06.869Z,31.96
2019-05-18T15:07:36.260Z,30.18
2019-05-18T15:10:06.336Z,29.11
2019-05-18T15:12:35.692Z,29.01
2019-05-18T15:15:05.700Z,29.13
2019-05-18T15:17:35.184Z,30.97
2019-05-18T15:20:04.905Z,32.64
2019-05-18T15:22:34.280Z,32.16
2019-05-18T15:25:03.889Z,32.17
2019-05-18T15:27:33.259Z,33.84
2019-05-18T15:30:02.879Z,35.49
2019-05-18T15:32:32.442Z,36.58
2019-05-18T15:35:01.971Z,37.50
2019-05-18T15:37:31.434Z,38.13
2019-05-18T15:40:00.911Z,38.58
2019-05-18T15:42:30.384Z,38.54
2019-05-18T15:45:00.034Z,38.26
2019-05-18T15:47:29.502Z,38.04
2019-05-18T15:49:58.902Z,37.44
2019-05-18T15:52:28.381Z,37.26
2019-05-18T15:54:57.867Z,37.95
2019-05-18T15:57:27.247Z,39.49
2019-05-18T15:59:56.649Z,40.73
2019-05-18T16:02:26.090Z,41.60
2019-05-18T16:04:55.565Z,42.36
2019-05-18T16:07:25.018Z,42.96
2019-05-18T16:09:54.497Z,42.85
2019-05-18T16:12:23.957Z,43.05
2019-05-18T16:14:53.446Z,43.06
2019-05-18T16:17:38.064Z,42.96
2019-05-18T16:19:54.082Z,42.40
2019-05-18T16:22:23.542Z,42.08
2019-05-18T16:24:53.090Z,41.82
2019-05-18T16:27:22.610Z,41.24
2019-05-18T16:29:52.077Z,40.61
2019-05-18T16:32:21.580Z,39.48
2019-05-18T16:34:50.970Z,39.03
2019-05-18T16:37:20.412Z,39.47
2019-05-18T16:39:49.924Z,39.46
2019-05-18T16:42:19.329Z,39.06
2019-05-18T16:44:48.808Z,38.54
2019-05-18T16:47:18.162Z,38.03
2019-05-18T16:49:47.760Z,37.27
2019-05-18T16:52:17.339Z,36.69
2019-05-18T16:54:46.764Z,35.26
2019-05-18T16:57:16.288Z,34.73
2019-05-18T16:59:45.678Z,33.62
2019-05-18T17:02:30.301Z,31.44
2019-05-18T17:04:46.328Z,31.49
2019-05-18T17:07:15.893Z,31.73
2019-05-18T17:09:45.348Z,31.48
2019-05-18T17:12:14.938Z,30.45
2019-05-18T17:14:44.388Z,29.21
2019-05-18T17:17:13.818Z,28.09
2019-05-18T17:19:43.284Z,27.24
2019-05-18T17:22:12.727Z,26.68
2019-05-18T17:24:42.204Z,26.41
2019-05-18T17:27:11.693Z,26.14
2019-05-18T17:29:41.161Z,25.77
2019-05-18T17:32:10.732Z,25.43
2019-05-18T17:34:40.221Z,25.03
2019-05-18T17:37:09.660Z,24.77
2019-05-18T17:39:39.250Z,24.79
2019-05-18T17:42:08.655Z,24.94
2019-05-18T17:44:38.236Z,24.84
2019-05-18T17:47:07.806Z,24.59
2019-05-18T17:49:37.249Z,24.09
2019-05-18T17:52:06.821Z,23.52
2019-05-18T17:54:36.246Z,22.90
2019-05-18T17:57:08.914Z,22.34
2019-05-18T17:59:36.940Z,21.90
2019-05-18T18:02:06.421Z,21.50
2019-05-18T18:04:35.780Z,21.12
2019-05-18T18:07:05.271Z,20.74
2019-05-18T18:09:34.723Z,20.87
2019-05-18T18:12:04.180Z,20.97
2019-05-18T18:14:33.674Z,20.93
2019-05-18T18:17:03.275Z,20.95
2019-05-18T18:19:32.673Z,20.91
2019-05-18T18:22:02.253Z,20.72
2019-05-18T18:24:31.736Z,20.60
2019-05-18T18:27:01.220Z,20.56
2019-05-18T18:29:30.598Z,20.56
2019-05-18T18:32:00.052Z,20.54
2019-05-18T18:34:29.420Z,20.53
2019-05-18T18:36:58.904Z,20.53
2019-05-18T18:39:28.483Z,20.37
2019-05-18T18:41:57.995Z,20.22
2019-05-18T18:44:27.470Z,20.09
2019-05-18T18:46:56.983Z,20.00
2019-05-18T18:49:26.559Z,19.89
2019-05-18T18:51:56.297Z,19.67
2019-05-18T18:54:28.879Z,19.49
2019-05-18T18:56:58.481Z,19.37
2019-05-18T18:59:27.938Z,19.26
2019-05-18T19:01:57.396Z,19.23
2019-05-18T19:04:26.832Z,19.15
2019-05-18T19:06:56.321Z,18.99
2019-05-18T19:09:25.724Z,18.94
2019-05-18T19:11:55.200Z,18.80
2019-05-18T19:14:24.586Z,18.57
2019-05-18T19:16:54.097Z,18.65
2019-05-18T19:19:23.447Z,18.67
2019-05-18T19:21:52.916Z,18.56
2019-05-18T19:24:22.268Z,18.50
2019-05-18T19:26:51.713Z,18.55
2019-05-18T19:29:21.233Z,18.55
2019-05-18T19:31:50.672Z,18.54
2019-05-18T19:34:20.084Z,18.44
2019-05-18T19:36:49.657Z,18.41
2019-05-18T19:39:19.093Z,18.41
2019-05-18T19:41:48.657Z,18.36
2019-05-18T19:44:18.037Z,18.34
2019-05-18T19:46:47.542Z,18.21
2019-05-18T19:49:16.953Z,18.19
2019-05-18T19:51:46.602Z,18.15
2019-05-18T19:54:15.924Z,18.01
2019-05-18T19:56:45.453Z,17.81
2019-05-18T19:59:14.812Z,17.78
2019-05-18T20:01:44.194Z,17.71
2019-05-18T20:04:13.522Z,17.61
2019-05-18T20:06:43.132Z,17.44
2019-05-18T20:09:12.648Z,17.44
2019-05-18T20:11:42.060Z,17.33
2019-05-18T20:14:11.471Z,17.17
2019-05-18T20:16:41.975Z,16.97
2019-05-18T20:19:11.487Z,16.81
2019-05-18T20:21:40.921Z,16.53
2019-05-18T20:24:10.589Z,16.10
2019-05-18T20:26:40.063Z,15.62
2019-05-18T20:29:09.533Z,15.17
2019-05-18T20:31:39.022Z,14.75
2019-05-18T20:34:08.511Z,14.38
2019-05-18T20:36:37.914Z,14.09
2019-05-18T20:39:07.605Z,13.93
2019-05-18T20:41:37.101Z,14.10
2019-05-18T20:44:06.821Z,14.22
2019-05-18T20:46:36.242Z,13.98
2019-05-18T20:49:05.783Z,13.66
2019-05-18T20:51:35.200Z,13.40
2019-05-18T20:54:04.632Z,13.28
2019-05-18T20:56:34.221Z,13.28
2019-05-18T20:59:03.724Z,13.12
2019-05-18T21:01:33.168Z,13.02
2019-05-18T21:04:02.587Z,12.98
2019-05-18T21:06:32.171Z,12.81
2019-05-18T21:09:01.739Z,12.68
2019-05-18T21:11:31.190Z,12.53
2019-05-18T21:14:00.602Z,12.39
2019-05-18T21:16:30.070Z,12.25
2019-05-18T21:18:59.462Z,12.13
2019-05-18T21:21:28.996Z,12.10
2019-05-18T21:23:58.410Z,12.16
2019-05-18T21:26:27.910Z,12.12
2019-05-18T21:29:00.749Z,12.01
2019-05-18T21:31:28.727Z,11.87
2019-05-18T21:33:58.202Z,11.85
2019-05-18T21:36:27.641Z,11.70
2019-05-18T21:38:57.159Z,11.53
2019-05-18T21:41:26.574Z,11.49
2019-05-18T21:43:56.014Z,11.44
2019-05-18T21:46:25.510Z,11.36
2019-05-18T21:48:54.939Z,11.29
2019-05-18T21:51:24.289Z,11.25
2019-05-18T21:53:53.758Z,11.21
2019-05-18T21:56:23.154Z,11.15
2019-05-18T21:58:52.732Z,11.11
2019-05-18T22:01:22.173Z,11.08
2019-05-18T22:03:51.523Z,11.03
2019-05-18T22:06:20.997Z,10.95
2019-05-18T22:08:50.359Z,10.87
2019-05-18T22:11:19.874Z,10.87
2019-05-18T22:13:49.328Z,10.79
2019-05-18T22:16:18.774Z,10.72
2019-05-18T22:18:48.128Z,10.73
2019-05-18T22:21:17.638Z,10.73
2019-05-18T22:23:47.141Z,10.71
2019-05-18T22:26:16.601Z,10.64
2019-05-18T22:28:46.086Z,10.57
2019-05-18T22:31:15.522Z,10.48
2019-05-18T22:33:44.884Z,10.40
2019-05-18T22:36:14.371Z,10.36
2019-05-18T22:38:43.815Z,10.36
2019-05-18T22:41:13.273Z,10.34
2019-05-18T22:43:42.645Z,10.21
2019-05-18T22:46:12.254Z,10.15
2019-05-18T22:48:42.029Z,10.14
2019-05-18T22:51:11.434Z,10.06
2019-05-18T22:53:40.774Z,10.01
2019-05-18T22:56:10.205Z,9.97
2019-05-18T22:58:39.769Z,9.97
2019-05-18T23:01:09.227Z,9.92
2019-05-18T23:03:38.682Z,9.87
2019-05-18T23:06:08.045Z,9.85
2019-05-18T23:08:37.383Z,9.82
2019-05-18T23:11:06.861Z,9.75
2019-05-18T23:13:36.184Z,9.76
2019-05-18T23:16:05.690Z,9.82
2019-05-18T23:18:35.029Z,9.82
2019-05-18T23:21:04.495Z,9.82
2019-05-18T23:23:33.993Z,9.80
2019-05-18T23:26:03.510Z,9.78
2019-05-18T23:28:34.003Z,9.76
2019-05-18T23:31:03.449Z,9.69
2019-05-18T23:33:32.737Z,9.64
2019-05-18T23:36:02.249Z,9.68
2019-05-18T23:38:31.694Z,9.69
2019-05-18T23:41:01.163Z,9.71
2019-05-18T23:43:30.581Z,9.81
2019-05-18T23:45:59.927Z,9.88
2019-05-18T23:48:29.378Z,9.86
2019-05-18T23:50:58.701Z,9.82
2019-05-18T23:53:28.099Z,9.78
2019-05-18T23:55:57.524Z,9.76
2019-05-18T23:58:26.862Z,9.71
